createdAt,value
2022-12-29T00:00:30.942Z,98237.00
2022-12-29T00:03:01.322Z,98230.22
2022-12-29T00:05:32.657Z,98223.56
2022-12-29T00:08:02.730Z,98222.91
2022-12-29T00:10:33.964Z,98241.03
2022-12-29T00:13:19.457Z,98227.47
2022-12-29T00:15:47.845Z,98223.31
2022-12-29T00:18:20.843Z,98232.03
2022-12-29T00:21:09.034Z,98227.25
2022-12-29T00:23:56.232Z,98232.25
2022-12-29T00:26:42.150Z,98226.00
2022-12-29T00:29:28.418Z,98211.63
2022-12-29T00:32:14.068Z,98212.38
2022-12-29T00:35:01.088Z,98218.25
2022-12-29T00:37:43.308Z,98216.44
2022-12-29T00:40:29.222Z,98209.72
2022-12-29T00:43:15.059Z,98205.66
2022-12-29T00:45:43.654Z,98218.53
2022-12-29T00:48:12.115Z,98225.16
2022-12-29T00:50:41.718Z,98199.56
2022-12-29T00:53:11.421Z,98206.91
2022-12-29T00:55:40.782Z,98233.38
2022-12-29T00:58:09.242Z,98218.53
2022-12-29T01:00:40.986Z,98201.97
2022-12-29T01:03:09.634Z,98192.16
2022-12-29T01:05:39.008Z,98199.00
2022-12-29T01:08:09.861Z,98194.78
2022-12-29T01:10:36.881Z,98187.66
2022-12-29T01:13:05.068Z,98176.38
2022-12-29T01:15:33.648Z,98173.13
2022-12-29T01:18:02.181Z,98171.44
2022-12-29T01:20:30.589Z,98180.94
2022-12-29T01:22:59.119Z,98183.97
2022-12-29T01:25:30.133Z,98180.81
2022-12-29T01:28:00.508Z,98175.41
2022-12-29T01:30:29.450Z,98182.88
2022-12-29T01:32:58.047Z,98174.69
2022-12-29T01:35:26.448Z,98200.69
2022-12-29T01:37:54.935Z,98183.25
2022-12-29T01:40:23.109Z,98178.38
2022-12-29T01:42:56.616Z,98189.16
2022-12-29T01:45:25.067Z,98177.47
2022-12-29T01:48:00.166Z,98204.09
2022-12-29T01:50:36.253Z,98184.50
2022-12-29T01:53:10.355Z,98190.88
2022-12-29T01:55:45.290Z,98192.31
2022-12-29T01:58:17.270Z,98186.41
2022-12-29T02:00:46.773Z,98188.09
2022-12-29T02:03:15.553Z,98194.22
2022-12-29T02:05:50.734Z,98212.75
2022-12-29T02:08:19.522Z,98204.47
2022-12-29T02:10:49.827Z,98201.81
2022-12-29T02:13:20.536Z,98193.50
2022-12-29T02:16:04.363Z,98195.31
2022-12-29T02:18:46.608Z,98192.25
2022-12-29T02:21:48.362Z,98199.50
2022-12-29T02:24:51.007Z,98195.44
2022-12-29T02:27:43.704Z,98176.03
2022-12-29T02:33:54.367Z,98168.06
2022-12-29T02:36:31.694Z,98170.88
2022-12-29T02:39:07.409Z,98177.00
2022-12-29T02:41:45.827Z,98177.59
2022-12-29T02:44:20.305Z,98170.47
2022-12-29T02:46:56.373Z,98172.88
2022-12-29T02:49:35.780Z,98169.28
2022-12-29T02:52:07.955Z,98170.13
2022-12-29T02:54:44.296Z,98164.00
2022-12-29T02:57:18.519Z,98155.31
2022-12-29T02:59:50.617Z,98166.03
2022-12-29T03:02:41.412Z,98145.69
2022-12-29T03:05:45.794Z,98143.66
2022-12-29T03:08:25.714Z,98153.63
2022-12-29T03:11:02.049Z,98145.56
2022-12-29T03:13:52.431Z,98146.06
2022-12-29T03:16:27.806Z,98144.84
2022-12-29T03:19:04.141Z,98165.56
2022-12-29T03:21:55.745Z,98147.59
2022-12-29T03:24:30.004Z,98154.56
2022-12-29T03:27:01.911Z,98150.25
2022-12-29T03:29:33.890Z,98149.19
2022-12-29T03:32:06.031Z,98143.19
2022-12-29T03:34:36.152Z,98141.25
2022-12-29T03:37:09.031Z,98138.03
2022-12-29T03:39:39.655Z,98140.94
2022-12-29T03:42:12.443Z,98135.63
2022-12-29T03:44:44.152Z,98148.75
2022-12-29T03:47:13.861Z,98140.06
2022-12-29T03:49:43.997Z,98144.28
2022-12-29T03:52:12.283Z,98143.91
2022-12-29T03:54:42.206Z,98140.06
2022-12-29T03:57:11.503Z,98136.69
2022-12-29T03:59:42.070Z,98136.72
2022-12-29T04:02:10.582Z,98132.22
2022-12-29T04:04:41.515Z,98136.22
2022-12-29T04:07:13.214Z,98135.50
2022-12-29T04:09:44.453Z,98133.84
2022-12-29T04:12:12.868Z,98133.47
2022-12-29T04:14:41.406Z,98133.47
2022-12-29T04:17:10.134Z,98121.91
2022-12-29T04:19:38.637Z,98136.25
2022-12-29T04:22:07.281Z,98130.81
2022-12-29T04:24:35.803Z,98133.13
2022-12-29T04:27:08.634Z,98136.25
2022-12-29T04:29:37.303Z,98140.44
2022-12-29T04:32:05.945Z,98143.94
2022-12-29T04:34:34.785Z,98119.97
2022-12-29T04:37:03.768Z,98126.38
2022-12-29T04:39:32.441Z,98129.59
2022-12-29T04:42:01.945Z,98131.78
2022-12-29T04:44:31.945Z,98143.34
2022-12-29T04:47:00.346Z,98141.78
2022-12-29T04:49:28.554Z,98145.34
2022-12-29T04:51:56.998Z,98145.50
2022-12-29T04:54:25.148Z,98144.66
2022-12-29T04:56:56.986Z,98139.47
2022-12-29T04:59:25.949Z,98134.06
2022-12-29T05:01:58.446Z,98128.06
2022-12-29T05:04:26.938Z,98126.59
2022-12-29T05:06:55.790Z,98118.28
2022-12-29T05:09:25.045Z,98129.22
2022-12-29T05:11:53.513Z,98111.78
2022-12-29T05:14:21.930Z,98136.19
2022-12-29T05:16:50.626Z,98126.00
2022-12-29T05:19:20.923Z,98123.84
2022-12-29T05:21:50.614Z,98128.44
2022-12-29T05:24:18.819Z,98123.38
2022-12-29T05:26:47.438Z,98132.28
2022-12-29T05:29:15.793Z,98123.03
2022-12-29T05:31:46.593Z,98132.28
2022-12-29T05:34:14.965Z,98128.53
2022-12-29T05:36:44.738Z,98130.84
2022-12-29T05:39:16.055Z,98133.00
2022-12-29T05:41:44.333Z,98130.00
2022-12-29T05:44:14.461Z,98121.44
2022-12-29T05:46:43.938Z,98130.59
2022-12-29T05:49:12.889Z,98121.81
2022-12-29T05:51:43.078Z,98114.22
2022-12-29T05:54:14.204Z,98120.72
2022-12-29T05:56:42.892Z,98116.03
2022-12-29T05:59:11.728Z,98102.69
2022-12-29T06:01:40.224Z,98107.94
2022-12-29T06:04:14.190Z,98112.28
2022-12-29T06:06:42.610Z,98101.59
2022-12-29T06:09:14.580Z,98097.59
2022-12-29T06:11:42.836Z,98108.81
2022-12-29T06:14:11.393Z,98099.06
2022-12-29T06:16:41.244Z,98116.38
2022-12-29T06:19:11.011Z,98118.66
2022-12-29T06:21:40.744Z,98093.88
2022-12-29T06:24:09.555Z,98113.38
2022-12-29T06:26:41.282Z,98093.63
2022-12-29T06:29:10.960Z,98110.75
2022-12-29T06:31:40.629Z,98099.91
2022-12-29T06:34:09.024Z,98128.44
2022-12-29T06:36:39.801Z,98102.28
2022-12-29T06:39:08.590Z,98103.66
2022-12-29T06:41:37.034Z,98110.00
2022-12-29T06:44:07.253Z,98117.34
2022-12-29T06:46:35.676Z,98100.72
2022-12-29T06:49:07.645Z,98108.66
2022-12-29T06:51:36.160Z,98109.16
2022-12-29T06:54:04.784Z,98101.09
2022-12-29T06:56:33.141Z,98111.72
2022-12-29T06:59:04.793Z,98118.03
2022-12-29T07:01:37.796Z,98099.78
2022-12-29T07:04:09.006Z,98113.09
2022-12-29T07:06:38.413Z,98101.31
2022-12-29T07:09:07.151Z,98094.63
2022-12-29T07:11:35.864Z,98097.16
2022-12-29T07:14:04.824Z,98099.94
2022-12-29T07:16:35.573Z,98093.16
2022-12-29T07:19:06.624Z,98105.56
2022-12-29T07:21:35.612Z,98096.78
2022-12-29T07:24:04.529Z,98102.06
2022-12-29T07:26:36.316Z,98100.66
2022-12-29T07:29:05.981Z,98107.50
2022-12-29T07:31:37.072Z,98115.81
2022-12-29T07:34:07.989Z,98111.38
2022-12-29T07:36:36.579Z,98122.94
2022-12-29T07:39:06.114Z,98121.44
2022-12-29T07:41:34.569Z,98118.94
2022-12-29T07:44:02.892Z,98114.47
2022-12-29T07:46:56.437Z,98106.19
2022-12-29T07:49:22.329Z,98154.03
2022-12-29T07:51:50.992Z,98127.81
2022-12-29T07:54:19.582Z,98125.78
2022-12-29T07:56:48.131Z,98115.06
2022-12-29T07:59:16.905Z,98117.59
2022-12-29T08:01:49.176Z,98122.75
2022-12-29T08:04:17.756Z,98115.88
2022-12-29T08:06:48.365Z,98101.19
2022-12-29T08:09:22.248Z,98117.44
2022-12-29T08:11:51.480Z,98099.88
2022-12-29T08:14:20.305Z,98114.78
2022-12-29T08:16:48.870Z,98127.53
2022-12-29T08:19:17.287Z,98112.25
2022-12-29T08:21:46.104Z,98113.34
2022-12-29T08:24:17.938Z,98114.13
2022-12-29T08:26:46.394Z,98120.88
2022-12-29T08:29:15.039Z,98122.31
2022-12-29T08:31:43.794Z,98115.69
2022-12-29T08:34:12.379Z,98147.72
2022-12-29T08:36:42.418Z,98143.63
2022-12-29T08:39:10.901Z,98137.94
2022-12-29T08:41:40.909Z,98159.25
2022-12-29T08:44:09.775Z,98164.09
2022-12-29T08:46:38.654Z,98177.72
2022-12-29T08:49:07.442Z,98200.22
2022-12-29T08:51:40.753Z,98213.97
2022-12-29T08:54:09.683Z,98208.91
2022-12-29T08:56:41.490Z,98221.31
2022-12-29T08:59:10.102Z,98221.44
2022-12-29T09:01:43.124Z,98210.97
2022-12-29T09:04:15.446Z,98220.13
2022-12-29T09:06:45.386Z,98199.41
2022-12-29T09:09:14.525Z,98210.00
2022-12-29T09:11:45.204Z,98216.75
2022-12-29T09:14:13.830Z,98219.97
2022-12-29T09:17:00.312Z,98225.53
2022-12-29T09:19:28.752Z,98221.53
2022-12-29T09:21:57.140Z,98241.16
2022-12-29T09:24:25.552Z,98245.75
2022-12-29T09:26:58.243Z,98248.25
2022-12-29T09:29:27.332Z,98239.09
2022-12-29T09:31:56.301Z,98239.94
2022-12-29T09:34:25.970Z,98239.72
2022-12-29T09:36:54.318Z,98245.63
2022-12-29T09:39:22.566Z,98240.19
2022-12-29T09:42:03.275Z,98242.25
2022-12-29T09:44:48.875Z,98242.25
2022-12-29T09:47:20.005Z,98256.47
2022-12-29T09:49:52.580Z,98247.78
2022-12-29T09:52:30.653Z,98250.06
2022-12-29T09:55:08.943Z,98263.69
2022-12-29T09:57:49.821Z,98253.22
2022-12-29T10:00:25.972Z,98249.47
2022-12-29T10:02:58.621Z,98251.28
2022-12-29T10:05:37.880Z,98253.81
2022-12-29T10:08:23.926Z,98261.38
2022-12-29T10:10:58.662Z,98261.00
2022-12-29T10:13:36.293Z,98257.88
2022-12-29T10:16:12.937Z,98259.31
2022-12-29T10:19:18.598Z,98264.28
2022-12-29T10:22:02.629Z,98266.31
2022-12-29T10:24:34.335Z,98284.50
2022-12-29T10:27:06.102Z,98280.16
2022-12-29T10:29:40.273Z,98270.53
2022-12-29T10:32:28.085Z,98258.16
2022-12-29T10:35:01.440Z,98278.34
2022-12-29T10:37:37.639Z,98272.56
2022-12-29T10:40:18.279Z,98269.31
2022-12-29T10:42:53.470Z,98263.19
2022-12-29T10:45:23.780Z,98268.03
2022-12-29T10:48:01.268Z,98266.09
2022-12-29T10:50:31.589Z,98263.06
2022-12-29T10:53:07.433Z,98250.91
2022-12-29T10:55:41.846Z,98251.38
2022-12-29T10:58:18.291Z,98257.56
2022-12-29T11:00:54.722Z,98260.19
2022-12-29T11:03:51.181Z,98245.88
2022-12-29T11:06:27.227Z,98255.75
2022-12-29T11:08:59.656Z,98266.09
2022-12-29T11:11:36.354Z,98263.56
2022-12-29T11:14:13.539Z,98275.84
2022-12-29T11:16:42.927Z,98266.66
2022-12-29T11:19:25.218Z,98278.81
2022-12-29T11:21:55.192Z,98264.91
2022-12-29T11:24:26.420Z,98272.72
2022-12-29T11:26:59.079Z,98284.47
2022-12-29T11:29:32.290Z,98294.81
2022-12-29T11:32:01.742Z,98294.69
2022-12-29T11:34:35.349Z,98290.03
2022-12-29T11:37:08.991Z,98290.94
2022-12-29T11:39:43.061Z,98313.69
2022-12-29T11:42:17.892Z,98312.50
2022-12-29T11:44:48.688Z,98320.03
2022-12-29T11:47:26.152Z,98316.34
2022-12-29T11:49:59.399Z,98312.16
2022-12-29T11:52:34.344Z,98311.53
2022-12-29T11:55:04.524Z,98317.22
2022-12-29T11:57:36.164Z,98316.00
2022-12-29T12:00:06.407Z,98304.56
2022-12-29T12:02:59.340Z,98302.88
2022-12-29T12:05:36.370Z,98296.25
2022-12-29T12:08:20.788Z,98299.16
2022-12-29T12:10:57.793Z,98304.97
2022-12-29T12:13:35.183Z,98293.16
2022-12-29T12:16:08.747Z,98278.22
2022-12-29T12:18:43.249Z,98283.66
2022-12-29T12:21:21.142Z,98279.06
2022-12-29T12:24:21.844Z,98270.66
2022-12-29T12:27:00.983Z,98278.47
2022-12-29T12:29:38.364Z,98268.13
2022-12-29T12:32:16.600Z,98279.09
2022-12-29T12:34:51.457Z,98271.00
2022-12-29T12:40:47.135Z,98256.41
2022-12-29T12:43:41.964Z,98259.06
2022-12-29T12:46:22.227Z,98259.66
2022-12-29T12:49:10.114Z,98243.97
2022-12-29T12:51:50.262Z,98229.44
2022-12-29T12:54:38.085Z,98232.28
2022-12-29T12:57:21.025Z,98223.78
2022-12-29T12:59:58.854Z,98240.91
2022-12-29T13:02:43.043Z,98229.88
2022-12-29T13:05:35.128Z,98231.69
2022-12-29T13:08:34.580Z,98243.72
2022-12-29T13:11:18.511Z,98235.72
2022-12-29T13:14:11.494Z,98246.78
2022-12-29T13:16:49.697Z,98246.63
2022-12-29T13:19:27.841Z,98250.75
2022-12-29T13:22:08.193Z,98243.69
2022-12-29T13:24:49.717Z,98248.13
2022-12-29T13:27:25.458Z,98254.84
2022-12-29T13:30:04.264Z,98249.38
2022-12-29T13:32:42.840Z,98243.94
2022-12-29T13:35:30.931Z,98251.53
2022-12-29T13:38:04.571Z,98241.41
2022-12-29T13:40:40.297Z,98253.00
2022-12-29T13:43:09.762Z,98245.97
2022-12-29T13:45:43.049Z,98245.41
2022-12-29T13:48:20.103Z,98245.88
2022-12-29T13:50:57.215Z,98253.84
2022-12-29T13:53:37.111Z,98245.78
2022-12-29T13:56:11.755Z,98262.72
2022-12-29T13:58:47.165Z,98242.63
2022-12-29T14:01:26.280Z,98257.78
2022-12-29T14:03:59.952Z,98249.06
2022-12-29T14:06:36.396Z,98242.31
2022-12-29T14:09:07.452Z,98260.41
2022-12-29T14:11:42.128Z,98263.28
2022-12-29T14:14:18.310Z,98269.41
2022-12-29T14:16:54.800Z,98272.81
2022-12-29T14:19:29.077Z,98262.31
2022-12-29T14:22:03.331Z,98270.00
2022-12-29T14:24:44.137Z,98268.72
2022-12-29T14:28:01.437Z,98280.09
2022-12-29T14:30:52.213Z,98280.66
2022-12-29T14:33:27.958Z,98283.59
2022-12-29T14:35:56.648Z,98290.31
2022-12-29T14:38:32.609Z,98285.91
2022-12-29T14:41:27.454Z,98296.53
2022-12-29T14:44:18.520Z,98296.03
2022-12-29T14:46:57.236Z,98290.00
2022-12-29T14:49:30.143Z,98290.25
2022-12-29T14:52:20.185Z,98290.13
2022-12-29T14:54:54.531Z,98301.34
2022-12-29T14:57:32.547Z,98303.50
2022-12-29T15:00:09.420Z,98302.16
2022-12-29T15:02:49.122Z,98303.13
2022-12-29T15:05:31.483Z,98298.94
2022-12-29T15:08:06.514Z,98303.41
2022-12-29T15:10:41.455Z,98294.75
2022-12-29T15:13:19.616Z,98284.50
2022-12-29T15:15:48.017Z,98306.41
2022-12-29T15:18:29.811Z,98304.47
2022-12-29T15:21:02.499Z,98305.94
2022-12-29T15:23:34.172Z,98302.06
2022-12-29T15:26:05.559Z,98303.38
2022-12-29T15:28:42.599Z,98309.28
2022-12-29T15:31:14.789Z,98302.66
2022-12-29T15:33:45.551Z,98304.97
2022-12-29T15:36:22.936Z,98316.13
2022-12-29T15:38:53.097Z,98314.44
2022-12-29T15:41:30.753Z,98311.53
2022-12-29T15:44:13.127Z,98300.94
2022-12-29T15:46:43.501Z,98314.13
2022-12-29T15:49:16.689Z,98311.00
2022-12-29T15:51:47.519Z,98318.06
2022-12-29T15:54:19.162Z,98320.47
2022-12-29T15:56:52.588Z,98317.94
2022-12-29T15:59:27.130Z,98324.72
2022-12-29T16:02:00.559Z,98331.84
2022-12-29T16:04:36.118Z,98334.19
2022-12-29T16:07:34.398Z,98328.47
2022-12-29T16:10:06.539Z,98337.16
2022-12-29T16:12:37.982Z,98340.28
2022-12-29T16:15:10.162Z,98334.63
2022-12-29T16:17:53.468Z,98352.31
2022-12-29T16:20:24.228Z,98352.53
2022-12-29T16:22:58.640Z,98347.97
2022-12-29T16:25:32.799Z,98353.88
2022-12-29T16:28:04.004Z,98355.19
2022-12-29T16:30:35.759Z,98356.72
2022-12-29T16:33:06.145Z,98353.09
2022-12-29T16:35:45.152Z,98355.81
2022-12-29T16:38:20.248Z,98350.69
2022-12-29T16:40:54.301Z,98350.69
2022-12-29T16:43:26.739Z,98355.06
2022-12-29T16:46:31.366Z,98352.59
2022-12-29T16:49:05.300Z,98361.88
2022-12-29T16:51:38.229Z,98365.81
2022-12-29T16:54:08.586Z,98370.56
2022-12-29T16:56:39.947Z,98382.16
2022-12-29T16:59:11.299Z,98368.88
2022-12-29T17:01:42.156Z,98373.09
2022-12-29T17:04:13.455Z,98380.78
2022-12-29T17:06:42.207Z,98371.09
2022-12-29T17:09:24.462Z,98375.38
2022-12-29T17:12:04.996Z,98374.94
2022-12-29T17:14:45.031Z,98375.53
2022-12-29T17:17:18.261Z,98377.75
2022-12-29T17:19:50.679Z,98388.72
2022-12-29T17:22:22.510Z,98385.22
2022-12-29T17:24:52.802Z,98397.38
2022-12-29T17:27:27.200Z,98395.81
2022-12-29T17:29:59.128Z,98398.50
2022-12-29T17:32:29.187Z,98404.94
2022-12-29T17:34:57.849Z,98410.94
2022-12-29T17:37:37.113Z,98411.38
2022-12-29T17:40:13.236Z,98409.91
2022-12-29T17:42:45.483Z,98405.13
2022-12-29T17:45:22.507Z,98417.50
2022-12-29T17:47:52.017Z,98411.72
2022-12-29T17:50:22.284Z,98425.25
2022-12-29T17:53:00.159Z,98418.81
2022-12-29T17:55:38.099Z,98419.38
2022-12-29T17:58:18.449Z,98414.09
2022-12-29T18:00:47.711Z,98419.50
2022-12-29T18:03:18.471Z,98405.63
2022-12-29T18:05:47.012Z,98421.94
2022-12-29T18:08:15.601Z,98408.50
2022-12-29T18:10:46.634Z,98406.19
2022-12-29T18:13:24.509Z,98418.69
2022-12-29T18:15:54.079Z,98424.47
2022-12-29T18:18:24.962Z,98427.13
2022-12-29T18:20:57.088Z,98425.34
2022-12-29T18:23:29.357Z,98422.91
2022-12-29T18:26:02.595Z,98418.38
2022-12-29T18:28:36.030Z,98425.47
2022-12-29T18:31:18.266Z,98427.25
2022-12-29T18:33:49.871Z,98425.44
2022-12-29T18:36:19.796Z,98419.31
2022-12-29T18:38:48.846Z,98430.31
2022-12-29T18:41:21.528Z,98427.13
2022-12-29T18:43:50.185Z,98428.06
2022-12-29T18:46:22.810Z,98430.31
2022-12-29T18:48:53.691Z,98437.16
2022-12-29T18:51:25.255Z,98440.03
2022-12-29T18:53:54.748Z,98439.47
2022-12-29T18:56:27.393Z,98447.63
2022-12-29T18:58:57.080Z,98440.31
2022-12-29T19:01:29.689Z,98441.78
2022-12-29T19:04:01.335Z,98456.78
2022-12-29T19:06:30.600Z,98445.19
2022-12-29T19:08:59.346Z,98464.28
2022-12-29T19:11:32.807Z,98458.78
2022-12-29T19:14:02.856Z,98460.16
2022-12-29T19:16:31.533Z,98454.38
2022-12-29T19:19:09.416Z,98468.84
2022-12-29T19:21:39.526Z,98463.34
2022-12-29T19:24:08.767Z,98458.28
2022-12-29T19:26:41.828Z,98465.78
2022-12-29T19:29:17.516Z,98457.63
2022-12-29T19:31:46.609Z,98468.91
2022-12-29T19:34:16.339Z,98472.22
2022-12-29T19:36:45.419Z,98468.44
2022-12-29T19:39:14.510Z,98474.13
2022-12-29T19:41:45.205Z,98470.56
2022-12-29T19:44:14.088Z,98471.19
2022-12-29T19:46:42.728Z,98467.28
2022-12-29T19:49:11.929Z,98476.03
2022-12-29T19:51:42.299Z,98472.44
2022-12-29T19:54:11.161Z,98469.91
2022-12-29T19:56:48.567Z,98477.28
2022-12-29T19:59:17.069Z,98490.69
2022-12-29T20:01:47.650Z,98485.94
2022-12-29T20:04:16.440Z,98485.81
2022-12-29T20:06:44.759Z,98479.28
2022-12-29T20:09:13.314Z,98485.31
2022-12-29T20:11:41.927Z,98479.69
2022-12-29T20:14:13.902Z,98477.88
2022-12-29T20:17:08.894Z,98486.25
2022-12-29T20:19:32.709Z,98488.41
2022-12-29T20:22:01.710Z,98501.19
2022-12-29T20:24:31.921Z,98487.94
2022-12-29T20:27:01.740Z,98494.66
2022-12-29T20:29:40.180Z,98496.44
2022-12-29T20:32:10.410Z,98499.50
2022-12-29T20:34:39.544Z,98505.34
2022-12-29T20:37:08.283Z,98504.56
2022-12-29T20:39:37.382Z,98504.88
2022-12-29T20:42:06.779Z,98503.81
2022-12-29T20:44:38.787Z,98509.81
2022-12-29T20:47:08.504Z,98516.84
2022-12-29T20:49:38.885Z,98531.41
2022-12-29T20:52:07.982Z,98526.53
2022-12-29T20:54:45.689Z,98520.91
2022-12-29T20:57:15.483Z,98524.66
2022-12-29T20:59:50.147Z,98534.16
2022-12-29T21:02:22.060Z,98536.78
2022-12-29T21:05:22.883Z,98539.69
2022-12-29T21:07:41.390Z,98536.97
2022-12-29T21:10:11.598Z,98538.38
2022-12-29T21:12:39.939Z,98539.88
2022-12-29T21:15:11.656Z,98545.91
2022-12-29T21:17:40.740Z,98545.91
2022-12-29T21:20:09.703Z,98550.50
2022-12-29T21:22:38.346Z,98557.09
2022-12-29T21:25:08.888Z,98560.88
2022-12-29T21:27:37.217Z,98569.28
2022-12-29T21:30:07.413Z,98568.06
2022-12-29T21:32:37.451Z,98579.06
2022-12-29T21:35:08.481Z,98581.53
2022-12-29T21:37:37.480Z,98580.84
2022-12-29T21:40:10.184Z,98584.59
2022-12-29T21:42:39.515Z,98596.59
2022-12-29T21:45:30.789Z,98594.69
2022-12-29T21:48:19.669Z,98600.63
2022-12-29T21:51:08.071Z,98599.69
2022-12-29T21:53:41.468Z,98597.03
2022-12-29T21:56:11.869Z,98608.25
2022-12-29T21:59:15.383Z,98614.94
2022-12-29T22:02:02.300Z,98609.00
2022-12-29T22:04:50.744Z,98608.53
2022-12-29T22:07:36.811Z,98604.28
2022-12-29T22:10:22.882Z,98606.25
2022-12-29T22:13:00.808Z,98607.19
2022-12-29T22:15:32.383Z,98600.16
2022-12-29T22:18:01.851Z,98609.44
2022-12-29T22:20:37.155Z,98606.50
2022-12-29T22:23:08.634Z,98612.78
2022-12-29T22:25:36.977Z,98619.94
2022-12-29T22:28:05.284Z,98635.41
2022-12-29T22:30:35.353Z,98633.53
2022-12-29T22:33:05.122Z,98639.75
2022-12-29T22:35:36.126Z,98643.41
2022-12-29T22:38:04.877Z,98650.13
2022-12-29T22:40:33.682Z,98654.69
2022-12-29T22:43:09.484Z,98657.41
2022-12-29T22:45:45.916Z,98659.63
2022-12-29T22:48:14.510Z,98654.28
2022-12-29T22:50:44.734Z,98664.09
2022-12-29T22:53:13.104Z,98665.22
2022-12-29T22:55:42.211Z,98661.63
2022-12-29T22:58:10.561Z,98672.06
2022-12-29T23:00:39.017Z,98677.34
2022-12-29T23:03:07.378Z,98659.88
2022-12-29T23:05:40.680Z,98675.69
2022-12-29T23:08:10.680Z,98678.25
2022-12-29T23:10:40.245Z,98685.69
2022-12-29T23:13:08.712Z,98669.13
2022-12-29T23:15:38.129Z,98662.59
2022-12-29T23:18:06.673Z,98668.06
2022-12-29T23:20:36.330Z,98668.84
2022-12-29T23:23:04.744Z,98670.25
2022-12-29T23:25:37.157Z,98671.75
2022-12-29T23:28:06.159Z,98664.97
2022-12-29T23:30:34.337Z,98672.19
2022-12-29T23:33:02.837Z,98682.19
2022-12-29T23:35:33.665Z,98684.06
2022-12-29T23:38:02.110Z,98680.59
2022-12-29T23:40:32.701Z,98685.13
2022-12-29T23:43:02.847Z,98685.88
2022-12-29T23:45:32.393Z,98676.81
2022-12-29T23:48:00.980Z,98684.63
2022-12-29T23:50:29.426Z,98681.78
2022-12-29T23:52:57.704Z,98687.16
2022-12-29T23:55:28.507Z,98694.38
2022-12-29T23:57:56.959Z,98690.56
